sensor_id;sensor_type;location;lat;lon;timestamp;P1;durP1;ratioP1;P2;durP2;ratioP2
11111;SDS011;5609;49.466;8.468;2023-06-22T00:00:59;6.27;;;5.50;;
11111;SDS011;5609;49.466;8.468;2023-06-22T00:03:26;6.30;;;5.70;;
11111;SDS011;5609;49.466;8.468;2023-06-22T00:05:55;6.40;;;5.80;;
11111;SDS011;5609;49.466;8.468;2023-06-22T00:08:22;6.27;;;5.67;;
11111;SDS011;5609;49.466;8.468;2023-06-22T00:10:49;6.50;;;5.90;;
11111;SDS011;5609;49.466;8.468;2023-06-22T00:13:16;7.07;;;6.00;;
11111;SDS011;5609;49.466;8.468;2023-06-22T00:15:43;6.37;;;5.77;;
11111;SDS011;5609;49.466;8.468;2023-06-22T00:18:10;6.60;;;6.00;;
11111;SDS011;5609;49.466;8.468;2023-06-22T00:20:38;6.13;;;5.60;;
11111;SDS011;5609;49.466;8.468;2023-06-22T00:23:06;8.17;;;6.13;;
11111;SDS011;5609;49.466;8.468;2023-06-22T00:25:34;6.47;;;5.87;;
11111;SDS011;5609;49.466;8.468;2023-06-22T00:28:01;6.57;;;5.87;;
11111;SDS011;5609;49.466;8.468;2023-06-22T00:30:29;6.77;;;6.03;;
11111;SDS011;5609;49.466;8.468;2023-06-22T00:32:56;6.00;;;5.47;;
11111;SDS011;5609;49.466;8.468;2023-06-22T00:35:23;6.80;;;6.10;;
11111;SDS011;5609;49.466;8.468;2023-06-22T00:37:53;6.57;;;5.80;;
11111;SDS011;5609;49.466;8.468;2023-06-22T00:40:26;6.80;;;6.20;;
11111;SDS011;5609;49.466;8.468;2023-06-22T00:42:54;8.73;;;7.50;;
11111;SDS011;5609;49.466;8.468;2023-06-22T00:45:21;8.13;;;7.43;;
11111;SDS011;5609;49.466;8.468;2023-06-22T00:47:49;8.90;;;7.97;;
11111;SDS011;5609;49.466;8.468;2023-06-22T00:50:18;7.77;;;7.07;;
11111;SDS011;5609;49.466;8.468;2023-06-22T00:52:46;9.27;;;8.47;;
11111;SDS011;5609;49.466;8.468;2023-06-22T00:55:13;10.13;;;8.10;;
11111;SDS011;5609;49.466;8.468;2023-06-22T00:57:44;11.47;;;8.60;;
11111;SDS011;5609;49.466;8.468;2023-06-22T01:00:12;9.77;;;8.47;;
11111;SDS011;5609;49.466;8.468;2023-06-22T01:02:39;11.80;;;9.80;;
11111;SDS011;5609;49.466;8.468;2023-06-22T01:05:07;9.93;;;9.03;;
11111;SDS011;5609;49.466;8.468;2023-06-22T01:07:34;10.20;;;9.20;;
11111;SDS011;5609;49.466;8.468;2023-06-22T01:10:03;11.20;;;9.40;;
11111;SDS011;5609;49.466;8.468;2023-06-22T01:12:34;10.17;;;9.17;;
11111;SDS011;5609;49.466;8.468;2023-06-22T01:15:05;10.67;;;9.30;;
11111;SDS011;5609;49.466;8.468;2023-06-22T01:17:35;10.33;;;9.33;;
11111;SDS011;5609;49.466;8.468;2023-06-22T01:20:03;11.53;;;10.33;;
11111;SDS011;5609;49.466;8.468;2023-06-22T01:22:30;11.60;;;10.57;;
11111;SDS011;5609;49.466;8.468;2023-06-22T01:25:00;11.40;;;10.30;;
11111;SDS011;5609;49.466;8.468;2023-06-22T01:27:34;12.60;;;11.37;;
11111;SDS011;5609;49.466;8.468;2023-06-22T01:30:07;12.50;;;11.30;;
11111;SDS011;5609;49.466;8.468;2023-06-22T01:32:35;12.87;;;10.80;;
11111;SDS011;5609;49.466;8.468;2023-06-22T01:35:03;12.43;;;11.03;;
11111;SDS011;5609;49.466;8.468;2023-06-22T01:37:31;12.40;;;11.10;;
11111;SDS011;5609;49.466;8.468;2023-06-22T01:39:59;11.23;;;10.13;;
11111;SDS011;5609;49.466;8.468;2023-06-22T01:42:28;11.70;;;10.50;;
11111;SDS011;5609;49.466;8.468;2023-06-22T01:44:55;11.87;;;10.10;;
11111;SDS011;5609;49.466;8.468;2023-06-22T01:47:24;11.40;;;10.37;;
11111;SDS011;5609;49.466;8.468;2023-06-22T01:49:52;11.57;;;10.50;;
11111;SDS011;5609;49.466;8.468;2023-06-22T01:52:20;12.37;;;11.17;;
11111;SDS011;5609;49.466;8.468;2023-06-22T01:54:47;12.00;;;10.90;;
11111;SDS011;5609;49.466;8.468;2023-06-22T01:57:14;11.97;;;10.77;;
11111;SDS011;5609;49.466;8.468;2023-06-22T01:59:43;12.67;;;11.57;;
11111;SDS011;5609;49.466;8.468;2023-06-22T02:02:12;12.73;;;11.53;;
11111;SDS011;5609;49.466;8.468;2023-06-22T02:04:43;13.60;;;12.30;;
11111;SDS011;5609;49.466;8.468;2023-06-22T02:07:12;12.37;;;11.27;;
11111;SDS011;5609;49.466;8.468;2023-06-22T02:09:41;12.77;;;11.73;;
11111;SDS011;5609;49.466;8.468;2023-06-22T02:12:09;12.30;;;11.20;;
11111;SDS011;5609;49.466;8.468;2023-06-22T02:14:38;12.27;;;11.07;;
11111;SDS011;5609;49.466;8.468;2023-06-22T02:17:05;12.70;;;11.50;;
11111;SDS011;5609;49.466;8.468;2023-06-22T02:19:35;12.73;;;11.60;;
11111;SDS011;5609;49.466;8.468;2023-06-22T02:22:04;13.47;;;12.10;;
11111;SDS011;5609;49.466;8.468;2023-06-22T02:24:31;12.10;;;11.10;;
11111;SDS011;5609;49.466;8.468;2023-06-22T02:26:58;13.37;;;12.17;;
11111;SDS011;5609;49.466;8.468;2023-06-22T02:29:25;12.50;;;11.30;;
11111;SDS011;5609;49.466;8.468;2023-06-22T02:31:53;13.43;;;12.23;;
11111;SDS011;5609;49.466;8.468;2023-06-22T02:34:20;13.33;;;12.13;;
11111;SDS011;5609;49.466;8.468;2023-06-22T02:36:47;13.70;;;12.50;;
11111;SDS011;5609;49.466;8.468;2023-06-22T02:39:18;13.70;;;12.40;;
11111;SDS011;5609;49.466;8.468;2023-06-22T02:41:45;13.73;;;12.60;;
11111;SDS011;5609;49.466;8.468;2023-06-22T02:44:12;13.37;;;12.07;;
11111;SDS011;5609;49.466;8.468;2023-06-22T02:46:39;14.03;;;12.73;;
11111;SDS011;5609;49.466;8.468;2023-06-22T02:49:06;13.90;;;12.70;;
11111;SDS011;5609;49.466;8.468;2023-06-22T02:51:33;14.40;;;13.00;;
11111;SDS011;5609;49.466;8.468;2023-06-22T02:54:01;14.90;;;13.50;;
11111;SDS011;5609;49.466;8.468;2023-06-22T02:56:29;14.63;;;13.30;;
11111;SDS011;5609;49.466;8.468;2023-06-22T02:58:56;15.00;;;13.70;;
11111;SDS011;5609;49.466;8.468;2023-06-22T03:01:25;15.60;;;14.07;;
11111;SDS011;5609;49.466;8.468;2023-06-22T03:03:52;15.30;;;13.83;;
11111;SDS011;5609;49.466;8.468;2023-06-22T03:06:19;15.83;;;14.33;;
11111;SDS011;5609;49.466;8.468;2023-06-22T03:08:48;15.13;;;13.73;;
11111;SDS011;5609;49.466;8.468;2023-06-22T03:11:15;15.77;;;13.63;;
11111;SDS011;5609;49.466;8.468;2023-06-22T03:13:44;15.30;;;13.70;;
11111;SDS011;5609;49.466;8.468;2023-06-22T03:16:11;14.80;;;13.47;;
11111;SDS011;5609;49.466;8.468;2023-06-22T03:18:38;14.20;;;12.83;;
11111;SDS011;5609;49.466;8.468;2023-06-22T03:21:05;13.50;;;12.30;;
11111;SDS011;5609;49.466;8.468;2023-06-22T03:23:32;14.23;;;12.83;;
11111;SDS011;5609;49.466;8.468;2023-06-22T03:25:59;13.73;;;12.53;;
11111;SDS011;5609;49.466;8.468;2023-06-22T03:28:26;13.70;;;12.47;;
11111;SDS011;5609;49.466;8.468;2023-06-22T03:30:56;14.00;;;12.63;;
11111;SDS011;5609;49.466;8.468;2023-06-22T03:33:24;13.87;;;12.67;;
11111;SDS011;5609;49.466;8.468;2023-06-22T03:35:50;13.03;;;11.83;;
11111;SDS011;5609;49.466;8.468;2023-06-22T03:38:18;13.33;;;12.13;;
11111;SDS011;5609;49.466;8.468;2023-06-22T03:40:45;13.77;;;12.57;;
11111;SDS011;5609;49.466;8.468;2023-06-22T03:43:13;14.03;;;12.83;;
11111;SDS011;5609;49.466;8.468;2023-06-22T03:45:39;13.10;;;11.93;;
11111;SDS011;5609;49.466;8.468;2023-06-22T03:48:08;13.53;;;12.33;;
11111;SDS011;5609;49.466;8.468;2023-06-22T03:50:35;13.50;;;12.30;;
11111;SDS011;5609;49.466;8.468;2023-06-22T03:53:02;13.40;;;12.17;;
11111;SDS011;5609;49.466;8.468;2023-06-22T03:55:29;13.83;;;12.20;;
11111;SDS011;5609;49.466;8.468;2023-06-22T03:57:56;13.73;;;12.53;;
11111;SDS011;5609;49.466;8.468;2023-06-22T04:00:23;13.30;;;12.20;;
11111;SDS011;5609;49.466;8.468;2023-06-22T04:02:50;14.40;;;12.90;;
11111;SDS011;5609;49.466;8.468;2023-06-22T04:05:18;13.50;;;12.20;;
11111;SDS011;5609;49.466;8.468;2023-06-22T04:07:45;13.00;;;11.80;;
11111;SDS011;5609;49.466;8.468;2023-06-22T04:10:12;12.77;;;11.60;;
11111;SDS011;5609;49.466;8.468;2023-06-22T04:12:39;12.47;;;11.37;;
11111;SDS011;5609;49.466;8.468;2023-06-22T04:15:07;13.40;;;12.20;;
11111;SDS011;5609;49.466;8.468;2023-06-22T04:17:34;12.30;;;11.30;;
11111;SDS011;5609;49.466;8.468;2023-06-22T04:20:01;12.07;;;10.97;;
11111;SDS011;5609;49.466;8.468;2023-06-22T04:22:30;12.40;;;11.20;;
11111;SDS011;5609;49.466;8.468;2023-06-22T04:24:57;13.23;;;11.93;;
11111;SDS011;5609;49.466;8.468;2023-06-22T04:27:24;13.67;;;12.37;;
11111;SDS011;5609;49.466;8.468;2023-06-22T04:29:52;12.50;;;11.23;;
11111;SDS011;5609;49.466;8.468;2023-06-22T04:32:19;12.23;;;11.03;;
11111;SDS011;5609;49.466;8.468;2023-06-22T04:34:46;13.63;;;11.77;;
11111;SDS011;5609;49.466;8.468;2023-06-22T04:37:13;11.63;;;10.63;;
11111;SDS011;5609;49.466;8.468;2023-06-22T04:39:42;11.90;;;10.73;;
11111;SDS011;5609;49.466;8.468;2023-06-22T04:42:09;11.77;;;10.77;;
11111;SDS011;5609;49.466;8.468;2023-06-22T04:44:36;11.47;;;10.37;;
11111;SDS011;5609;49.466;8.468;2023-06-22T04:47:05;11.33;;;10.23;;
11111;SDS011;5609;49.466;8.468;2023-06-22T04:49:33;10.60;;;9.60;;
11111;SDS011;5609;49.466;8.468;2023-06-22T04:52:03;10.40;;;9.30;;
11111;SDS011;5609;49.466;8.468;2023-06-22T04:54:30;9.27;;;8.47;;
11111;SDS011;5609;49.466;8.468;2023-06-22T04:57:00;9.53;;;8.63;;
11111;SDS011;5609;49.466;8.468;2023-06-22T04:59:28;9.60;;;8.80;;
11111;SDS011;5609;49.466;8.468;2023-06-22T05:01:55;13.53;;;12.33;;
11111;SDS011;5609;49.466;8.468;2023-06-22T05:04:22;9.30;;;8.40;;
11111;SDS011;5609;49.466;8.468;2023-06-22T05:06:49;9.70;;;8.90;;
11111;SDS011;5609;49.466;8.468;2023-06-22T05:09:16;8.87;;;8.17;;
11111;SDS011;5609;49.466;8.468;2023-06-22T05:11:43;9.53;;;8.63;;
11111;SDS011;5609;49.466;8.468;2023-06-22T05:14:11;10.03;;;9.17;;
11111;SDS011;5609;49.466;8.468;2023-06-22T05:16:40;9.80;;;8.60;;
11111;SDS011;5609;49.466;8.468;2023-06-22T05:19:08;8.90;;;8.10;;
11111;SDS011;5609;49.466;8.468;2023-06-22T05:21:35;8.50;;;7.73;;
11111;SDS011;5609;49.466;8.468;2023-06-22T05:24:02;10.77;;;9.80;;
11111;SDS011;5609;49.466;8.468;2023-06-22T05:26:29;8.80;;;8.03;;
11111;SDS011;5609;49.466;8.468;2023-06-22T05:28:56;9.20;;;8.27;;
11111;SDS011;5609;49.466;8.468;2023-06-22T05:31:25;8.63;;;7.73;;
11111;SDS011;5609;49.466;8.468;2023-06-22T05:33:52;13.30;;;12.10;;
11111;SDS011;5609;49.466;8.468;2023-06-22T05:36:20;8.87;;;8.07;;
11111;SDS011;5609;49.466;8.468;2023-06-22T05:38:50;8.70;;;7.80;;
11111;SDS011;5609;49.466;8.468;2023-06-22T05:41:17;8.27;;;7.57;;
11111;SDS011;5609;49.466;8.468;2023-06-22T05:43:44;9.03;;;8.20;;
11111;SDS011;5609;49.466;8.468;2023-06-22T05:46:11;8.10;;;7.40;;
11111;SDS011;5609;49.466;8.468;2023-06-22T05:48:39;9.00;;;8.10;;
11111;SDS011;5609;49.466;8.468;2023-06-22T05:51:06;8.40;;;7.33;;
11111;SDS011;5609;49.466;8.468;2023-06-22T05:53:33;8.63;;;7.07;;
11111;SDS011;5609;49.466;8.468;2023-06-22T05:56:00;7.97;;;7.23;;
11111;SDS011;5609;49.466;8.468;2023-06-22T05:58:27;8.00;;;7.20;;
11111;SDS011;5609;49.466;8.468;2023-06-22T06:00:54;8.03;;;7.33;;
11111;SDS011;5609;49.466;8.468;2023-06-22T06:03:21;7.53;;;6.83;;
11111;SDS011;5609;49.466;8.468;2023-06-22T06:05:50;7.90;;;7.20;;
11111;SDS011;5609;49.466;8.468;2023-06-22T06:08:17;7.90;;;7.20;;
11111;SDS011;5609;49.466;8.468;2023-06-22T06:10:44;7.30;;;6.60;;
11111;SDS011;5609;49.466;8.468;2023-06-22T06:13:11;8.00;;;6.80;;
11111;SDS011;5609;49.466;8.468;2023-06-22T06:15:38;7.73;;;7.03;;
11111;SDS011;5609;49.466;8.468;2023-06-22T06:18:05;7.20;;;6.60;;
11111;SDS011;5609;49.466;8.468;2023-06-22T06:20:32;7.37;;;6.77;;
11111;SDS011;5609;49.466;8.468;2023-06-22T06:23:00;7.07;;;6.37;;
11111;SDS011;5609;49.466;8.468;2023-06-22T06:25:27;7.37;;;6.73;;
11111;SDS011;5609;49.466;8.468;2023-06-22T06:27:54;7.43;;;6.73;;
11111;SDS011;5609;49.466;8.468;2023-06-22T06:30:21;8.00;;;7.20;;
11111;SDS011;5609;49.466;8.468;2023-06-22T06:32:49;7.63;;;6.80;;
11111;SDS011;5609;49.466;8.468;2023-06-22T06:35:16;7.37;;;6.77;;
11111;SDS011;5609;49.466;8.468;2023-06-22T06:37:43;7.73;;;7.00;;
11111;SDS011;5609;49.466;8.468;2023-06-22T06:40:12;7.13;;;6.43;;
11111;SDS011;5609;49.466;8.468;2023-06-22T06:42:40;7.17;;;6.47;;
11111;SDS011;5609;49.466;8.468;2023-06-22T06:45:09;7.20;;;6.60;;
11111;SDS011;5609;49.466;8.468;2023-06-22T06:47:36;7.10;;;6.40;;
11111;SDS011;5609;49.466;8.468;2023-06-22T06:50:04;7.20;;;6.50;;
11111;SDS011;5609;49.466;8.468;2023-06-22T06:52:31;7.53;;;6.83;;
11111;SDS011;5609;49.466;8.468;2023-06-22T06:54:58;7.63;;;6.93;;
11111;SDS011;5609;49.466;8.468;2023-06-22T06:57:27;7.10;;;6.40;;
11111;SDS011;5609;49.466;8.468;2023-06-22T06:59:55;7.00;;;6.27;;
11111;SDS011;5609;49.466;8.468;2023-06-22T07:02:22;6.20;;;5.60;;
11111;SDS011;5609;49.466;8.468;2023-06-22T07:04:49;6.93;;;6.33;;
11111;SDS011;5609;49.466;8.468;2023-06-22T07:07:16;6.90;;;6.30;;
11111;SDS011;5609;49.466;8.468;2023-06-22T07:09:43;6.60;;;5.90;;
11111;SDS011;5609;49.466;8.468;2023-06-22T07:12:10;7.23;;;6.30;;
11111;SDS011;5609;49.466;8.468;2023-06-22T07:14:38;7.70;;;6.90;;
11111;SDS011;5609;49.466;8.468;2023-06-22T07:17:05;6.47;;;5.90;;
11111;SDS011;5609;49.466;8.468;2023-06-22T07:19:32;6.90;;;6.27;;
11111;SDS011;5609;49.466;8.468;2023-06-22T07:21:59;6.47;;;5.77;;
11111;SDS011;5609;49.466;8.468;2023-06-22T07:24:27;6.50;;;5.90;;
11111;SDS011;5609;49.466;8.468;2023-06-22T07:26:54;7.60;;;5.97;;
11111;SDS011;5609;49.466;8.468;2023-06-22T07:29:24;6.97;;;6.27;;
11111;SDS011;5609;49.466;8.468;2023-06-22T07:31:53;6.43;;;5.83;;
11111;SDS011;5609;49.466;8.468;2023-06-22T07:34:21;7.20;;;5.43;;
11111;SDS011;5609;49.466;8.468;2023-06-22T07:36:48;6.90;;;5.70;;
11111;SDS011;5609;49.466;8.468;2023-06-22T07:39:15;6.10;;;5.50;;
11111;SDS011;5609;49.466;8.468;2023-06-22T07:41:42;5.93;;;5.20;;
11111;SDS011;5609;49.466;8.468;2023-06-22T07:44:09;5.53;;;4.80;;
11111;SDS011;5609;49.466;8.468;2023-06-22T07:46:36;5.07;;;4.67;;
11111;SDS011;5609;49.466;8.468;2023-06-22T07:49:04;5.87;;;4.93;;
11111;SDS011;5609;49.466;8.468;2023-06-22T07:51:33;5.10;;;4.60;;
11111;SDS011;5609;49.466;8.468;2023-06-22T07:54:00;6.73;;;5.00;;
11111;SDS011;5609;49.466;8.468;2023-06-22T07:56:27;6.20;;;4.90;;
11111;SDS011;5609;49.466;8.468;2023-06-22T07:58:54;5.60;;;5.10;;
11111;SDS011;5609;49.466;8.468;2023-06-22T08:01:23;5.07;;;4.57;;
11111;SDS011;5609;49.466;8.468;2023-06-22T08:03:50;6.43;;;4.80;;
11111;SDS011;5609;49.466;8.468;2023-06-22T08:06:18;5.90;;;5.40;;
11111;SDS011;5609;49.466;8.468;2023-06-22T08:08:46;5.90;;;5.30;;
11111;SDS011;5609;49.466;8.468;2023-06-22T08:11:14;5.77;;;5.27;;
11111;SDS011;5609;49.466;8.468;2023-06-22T08:13:41;6.57;;;5.07;;
11111;SDS011;5609;49.466;8.468;2023-06-22T08:16:08;5.63;;;4.93;;
11111;SDS011;5609;49.466;8.468;2023-06-22T08:18:35;5.93;;;5.00;;
11111;SDS011;5609;49.466;8.468;2023-06-22T08:21:02;5.13;;;4.50;;
11111;SDS011;5609;49.466;8.468;2023-06-22T08:23:30;6.47;;;4.90;;
11111;SDS011;5609;49.466;8.468;2023-06-22T08:25:57;5.60;;;5.10;;
11111;SDS011;5609;49.466;8.468;2023-06-22T08:28:24;5.30;;;4.80;;
11111;SDS011;5609;49.466;8.468;2023-06-22T08:30:51;5.93;;;5.43;;
11111;SDS011;5609;49.466;8.468;2023-06-22T08:33:20;6.13;;;5.27;;
11111;SDS011;5609;49.466;8.468;2023-06-22T08:35:53;5.57;;;5.07;;
11111;SDS011;5609;49.466;8.468;2023-06-22T08:38:20;5.20;;;4.70;;
11111;SDS011;5609;49.466;8.468;2023-06-22T08:40:48;5.40;;;4.90;;
11111;SDS011;5609;49.466;8.468;2023-06-22T08:43:15;5.80;;;5.30;;
11111;SDS011;5609;49.466;8.468;2023-06-22T08:45:42;5.47;;;4.93;;
11111;SDS011;5609;49.466;8.468;2023-06-22T08:48:09;5.33;;;4.73;;
11111;SDS011;5609;49.466;8.468;2023-06-22T08:50:36;6.10;;;4.80;;
11111;SDS011;5609;49.466;8.468;2023-06-22T08:53:05;5.23;;;4.63;;
11111;SDS011;5609;49.466;8.468;2023-06-22T08:55:33;5.43;;;4.90;;
11111;SDS011;5609;49.466;8.468;2023-06-22T08:58:01;5.03;;;4.63;;
11111;SDS011;5609;49.466;8.468;2023-06-22T09:00:28;5.33;;;4.90;;
11111;SDS011;5609;49.466;8.468;2023-06-22T09:02:58;5.57;;;5.13;;
11111;SDS011;5609;49.466;8.468;2023-06-22T09:05:25;5.47;;;4.97;;
11111;SDS011;5609;49.466;8.468;2023-06-22T09:07:52;5.33;;;4.83;;
11111;SDS011;5609;49.466;8.468;2023-06-22T09:10:19;5.27;;;4.77;;
11111;SDS011;5609;49.466;8.468;2023-06-22T09:12:46;5.70;;;5.17;;
11111;SDS011;5609;49.466;8.468;2023-06-22T09:15:15;5.17;;;4.77;;
11111;SDS011;5609;49.466;8.468;2023-06-22T09:17:42;5.80;;;5.20;;
11111;SDS011;5609;49.466;8.468;2023-06-22T09:20:11;6.27;;;5.37;;
11111;SDS011;5609;49.466;8.468;2023-06-22T09:22:38;5.50;;;5.00;;
11111;SDS011;5609;49.466;8.468;2023-06-22T09:25:05;5.87;;;5.07;;
11111;SDS011;5609;49.466;8.468;2023-06-22T09:27:32;6.07;;;5.10;;
11111;SDS011;5609;49.466;8.468;2023-06-22T09:29:59;5.67;;;5.20;;
11111;SDS011;5609;49.466;8.468;2023-06-22T09:32:29;4.70;;;4.30;;
11111;SDS011;5609;49.466;8.468;2023-06-22T09:34:56;5.93;;;4.70;;
11111;SDS011;5609;49.466;8.468;2023-06-22T09:37:23;5.30;;;4.50;;
11111;SDS011;5609;49.466;8.468;2023-06-22T09:39:50;6.33;;;4.30;;
11111;SDS011;5609;49.466;8.468;2023-06-22T09:42:17;6.40;;;4.70;;
11111;SDS011;5609;49.466;8.468;2023-06-22T09:44:44;5.20;;;4.57;;
11111;SDS011;5609;49.466;8.468;2023-06-22T09:47:11;6.80;;;4.27;;
11111;SDS011;5609;49.466;8.468;2023-06-22T09:49:39;5.40;;;4.33;;
11111;SDS011;5609;49.466;8.468;2023-06-22T09:52:07;6.57;;;4.93;;
11111;SDS011;5609;49.466;8.468;2023-06-22T09:54:34;7.97;;;4.67;;
11111;SDS011;5609;49.466;8.468;2023-06-22T09:57:01;8.77;;;5.20;;
11111;SDS011;5609;49.466;8.468;2023-06-22T09:59:28;5.20;;;4.57;;
11111;SDS011;5609;49.466;8.468;2023-06-22T10:01:55;6.47;;;4.80;;
11111;SDS011;5609;49.466;8.468;2023-06-22T10:04:21;6.03;;;4.47;;
11111;SDS011;5609;49.466;8.468;2023-06-22T10:06:50;6.23;;;4.80;;
11111;SDS011;5609;49.466;8.468;2023-06-22T10:09:17;5.53;;;4.57;;
11111;SDS011;5609;49.466;8.468;2023-06-22T10:11:46;5.97;;;4.57;;
11111;SDS011;5609;49.466;8.468;2023-06-22T10:14:13;6.67;;;4.93;;
11111;SDS011;5609;49.466;8.468;2023-06-22T10:16:40;5.78;;;4.72;;
11111;SDS011;5609;49.466;8.468;2023-06-22T10:19:07;6.50;;;5.13;;
11111;SDS011;5609;49.466;8.468;2023-06-22T10:21:34;5.85;;;4.60;;
11111;SDS011;5609;49.466;8.468;2023-06-22T10:24:02;6.47;;;5.20;;
11111;SDS011;5609;49.466;8.468;2023-06-22T10:26:31;5.27;;;4.77;;
11111;SDS011;5609;49.466;8.468;2023-06-22T10:28:58;8.03;;;5.23;;
11111;SDS011;5609;49.466;8.468;2023-06-22T10:31:26;6.40;;;5.00;;
11111;SDS011;5609;49.466;8.468;2023-06-22T10:33:53;6.77;;;5.17;;
11111;SDS011;5609;49.466;8.468;2023-06-22T10:36:20;7.63;;;4.80;;
11111;SDS011;5609;49.466;8.468;2023-06-22T10:38:47;6.67;;;4.90;;
11111;SDS011;5609;49.466;8.468;2023-06-22T10:41:16;7.93;;;4.93;;
11111;SDS011;5609;49.466;8.468;2023-06-22T10:43:43;5.57;;;5.00;;
11111;SDS011;5609;49.466;8.468;2023-06-22T10:46:10;7.47;;;4.93;;
11111;SDS011;5609;49.466;8.468;2023-06-22T10:48:37;9.45;;;5.13;;
11111;SDS011;5609;49.466;8.468;2023-06-22T10:51:04;7.30;;;5.30;;
11111;SDS011;5609;49.466;8.468;2023-06-22T10:53:31;6.38;;;4.80;;
11111;SDS011;5609;49.466;8.468;2023-06-22T10:55:58;7.63;;;4.88;;
11111;SDS011;5609;49.466;8.468;2023-06-22T10:58:26;9.35;;;5.40;;
11111;SDS011;5609;49.466;8.468;2023-06-22T11:00:53;6.75;;;5.05;;
11111;SDS011;5609;49.466;8.468;2023-06-22T11:03:21;10.13;;;5.47;;
11111;SDS011;5609;49.466;8.468;2023-06-22T11:05:48;5.45;;;4.90;;
11111;SDS011;5609;49.466;8.468;2023-06-22T11:08:14;8.52;;;5.50;;
11111;SDS011;5609;49.466;8.468;2023-06-22T11:10:42;7.28;;;4.80;;
11111;SDS011;5609;49.466;8.468;2023-06-22T11:13:09;6.82;;;5.00;;
11111;SDS011;5609;49.466;8.468;2023-06-22T11:15:38;5.60;;;4.93;;
11111;SDS011;5609;49.466;8.468;2023-06-22T11:18:05;6.85;;;5.18;;
11111;SDS011;5609;49.466;8.468;2023-06-22T11:20:32;6.38;;;5.00;;
11111;SDS011;5609;49.466;8.468;2023-06-22T11:22:59;6.70;;;5.00;;
11111;SDS011;5609;49.466;8.468;2023-06-22T11:25:26;6.80;;;4.70;;
11111;SDS011;5609;49.466;8.468;2023-06-22T11:27:53;7.38;;;5.05;;
11111;SDS011;5609;49.466;8.468;2023-06-22T11:30:20;7.22;;;4.63;;
11111;SDS011;5609;49.466;8.468;2023-06-22T11:32:49;5.85;;;4.70;;
11111;SDS011;5609;49.466;8.468;2023-06-22T11:35:16;7.65;;;5.05;;
11111;SDS011;5609;49.466;8.468;2023-06-22T11:37:43;6.28;;;4.90;;
11111;SDS011;5609;49.466;8.468;2023-06-22T11:40:10;8.77;;;4.90;;
11111;SDS011;5609;49.466;8.468;2023-06-22T11:42:37;6.28;;;4.85;;
11111;SDS011;5609;49.466;8.468;2023-06-22T11:45:05;8.30;;;5.00;;
11111;SDS011;5609;49.466;8.468;2023-06-22T11:47:32;6.32;;;5.07;;
11111;SDS011;5609;49.466;8.468;2023-06-22T11:50:00;7.40;;;5.03;;
11111;SDS011;5609;49.466;8.468;2023-06-22T11:52:27;7.43;;;4.80;;
11111;SDS011;5609;49.466;8.468;2023-06-22T11:54:54;7.38;;;4.88;;
11111;SDS011;5609;49.466;8.468;2023-06-22T11:57:21;6.70;;;4.93;;
11111;SDS011;5609;49.466;8.468;2023-06-22T11:59:48;6.38;;;4.63;;
11111;SDS011;5609;49.466;8.468;2023-06-22T12:02:15;6.35;;;4.75;;
11111;SDS011;5609;49.466;8.468;2023-06-22T12:04:42;6.65;;;4.80;;
11111;SDS011;5609;49.466;8.468;2023-06-22T12:07:11;7.25;;;5.00;;
11111;SDS011;5609;49.466;8.468;2023-06-22T12:09:38;4.65;;;4.15;;
11111;SDS011;5609;49.466;8.468;2023-06-22T12:12:05;7.82;;;4.70;;
11111;SDS011;5609;49.466;8.468;2023-06-22T12:14:32;4.90;;;4.40;;
11111;SDS011;5609;49.466;8.468;2023-06-22T12:16:59;6.38;;;4.35;;
11111;SDS011;5609;49.466;8.468;2023-06-22T12:19:26;6.40;;;4.65;;
11111;SDS011;5609;49.466;8.468;2023-06-22T12:21:53;6.07;;;4.47;;
11111;SDS011;5609;49.466;8.468;2023-06-22T12:24:21;7.53;;;4.47;;
11111;SDS011;5609;49.466;8.468;2023-06-22T12:26:49;5.50;;;4.50;;
11111;SDS011;5609;49.466;8.468;2023-06-22T12:29:16;7.47;;;4.90;;
11111;SDS011;5609;49.466;8.468;2023-06-22T12:31:43;6.82;;;5.15;;
11111;SDS011;5609;49.466;8.468;2023-06-22T12:34:10;5.13;;;4.63;;
11111;SDS011;5609;49.466;8.468;2023-06-22T12:36:37;6.93;;;4.80;;
11111;SDS011;5609;49.466;8.468;2023-06-22T12:39:04;7.60;;;4.82;;
11111;SDS011;5609;49.466;8.468;2023-06-22T12:41:32;7.13;;;4.63;;
11111;SDS011;5609;49.466;8.468;2023-06-22T12:43:59;6.32;;;4.75;;
11111;SDS011;5609;49.466;8.468;2023-06-22T12:46:26;5.07;;;4.60;;
11111;SDS011;5609;49.466;8.468;2023-06-22T12:48:54;5.15;;;4.53;;
11111;SDS011;5609;49.466;8.468;2023-06-22T12:51:21;6.28;;;4.55;;
11111;SDS011;5609;49.466;8.468;2023-06-22T12:53:48;7.80;;;4.90;;
11111;SDS011;5609;49.466;8.468;2023-06-22T12:56:15;5.63;;;4.60;;
11111;SDS011;5609;49.466;8.468;2023-06-22T12:58:43;6.57;;;4.35;;
11111;SDS011;5609;49.466;8.468;2023-06-22T13:01:10;6.32;;;4.40;;
11111;SDS011;5609;49.466;8.468;2023-06-22T13:03:37;7.55;;;4.57;;
11111;SDS011;5609;49.466;8.468;2023-06-22T13:06:05;7.18;;;4.50;;
11111;SDS011;5609;49.466;8.468;2023-06-22T13:08:32;9.82;;;4.68;;
11111;SDS011;5609;49.466;8.468;2023-06-22T13:10:59;7.05;;;4.95;;
11111;SDS011;5609;49.466;8.468;2023-06-22T13:13:25;7.03;;;4.70;;
11111;SDS011;5609;49.466;8.468;2023-06-22T13:15:54;6.07;;;4.65;;
11111;SDS011;5609;49.466;8.468;2023-06-22T13:18:21;5.65;;;4.20;;
11111;SDS011;5609;49.466;8.468;2023-06-22T13:20:48;5.57;;;4.30;;
11111;SDS011;5609;49.466;8.468;2023-06-22T13:23:15;6.88;;;4.93;;
11111;SDS011;5609;49.466;8.468;2023-06-22T13:25:42;6.97;;;5.03;;
11111;SDS011;5609;49.466;8.468;2023-06-22T13:28:09;6.07;;;4.70;;
11111;SDS011;5609;49.466;8.468;2023-06-22T13:30:38;6.93;;;4.57;;
11111;SDS011;5609;49.466;8.468;2023-06-22T13:33:06;7.25;;;4.60;;
11111;SDS011;5609;49.466;8.468;2023-06-22T13:35:34;6.57;;;4.30;;
11111;SDS011;5609;49.466;8.468;2023-06-22T13:38:01;5.78;;;4.57;;
11111;SDS011;5609;49.466;8.468;2023-06-22T13:40:28;6.30;;;4.30;;
11111;SDS011;5609;49.466;8.468;2023-06-22T13:42:55;6.95;;;4.78;;
11111;SDS011;5609;49.466;8.468;2023-06-22T13:45:22;7.85;;;4.30;;
11111;SDS011;5609;49.466;8.468;2023-06-22T13:47:49;7.55;;;4.20;;
11111;SDS011;5609;49.466;8.468;2023-06-22T13:50:18;9.38;;;4.60;;
11111;SDS011;5609;49.466;8.468;2023-06-22T13:52:45;6.28;;;4.50;;
11111;SDS011;5609;49.466;8.468;2023-06-22T13:55:12;6.97;;;4.38;;
11111;SDS011;5609;49.466;8.468;2023-06-22T13:57:40;6.45;;;4.57;;
11111;SDS011;5609;49.466;8.468;2023-06-22T14:00:07;7.68;;;4.32;;
11111;SDS011;5609;49.466;8.468;2023-06-22T14:02:35;6.95;;;4.60;;
11111;SDS011;5609;49.466;8.468;2023-06-22T14:05:02;7.47;;;4.32;;
11111;SDS011;5609;49.466;8.468;2023-06-22T14:07:30;6.68;;;4.88;;
11111;SDS011;5609;49.466;8.468;2023-06-22T14:09:57;6.15;;;4.90;;
11111;SDS011;5609;49.466;8.468;2023-06-22T14:12:24;7.75;;;4.93;;
11111;SDS011;5609;49.466;8.468;2023-06-22T14:14:51;7.30;;;5.30;;
11111;SDS011;5609;49.466;8.468;2023-06-22T14:17:18;8.55;;;5.60;;
11111;SDS011;5609;49.466;8.468;2023-06-22T14:19:48;6.97;;;4.90;;
11111;SDS011;5609;49.466;8.468;2023-06-22T14:22:17;6.45;;;5.20;;
11111;SDS011;5609;49.466;8.468;2023-06-22T14:24:45;7.20;;;5.20;;
11111;SDS011;5609;49.466;8.468;2023-06-22T14:27:12;6.75;;;5.40;;
11111;SDS011;5609;49.466;8.468;2023-06-22T14:29:39;10.27;;;5.80;;
11111;SDS011;5609;49.466;8.468;2023-06-22T14:32:06;9.77;;;5.82;;
11111;SDS011;5609;49.466;8.468;2023-06-22T14:34:33;7.10;;;5.28;;
11111;SDS011;5609;49.466;8.468;2023-06-22T14:37:04;9.03;;;5.50;;
11111;SDS011;5609;49.466;8.468;2023-06-22T14:39:31;9.63;;;5.60;;
11111;SDS011;5609;49.466;8.468;2023-06-22T14:41:59;9.10;;;5.57;;
11111;SDS011;5609;49.466;8.468;2023-06-22T14:44:28;9.10;;;5.50;;
11111;SDS011;5609;49.466;8.468;2023-06-22T14:46:55;9.23;;;6.00;;
11111;SDS011;5609;49.466;8.468;2023-06-22T14:49:23;8.70;;;5.77;;
11111;SDS011;5609;49.466;8.468;2023-06-22T14:51:50;8.68;;;5.78;;
11111;SDS011;5609;49.466;8.468;2023-06-22T14:54:17;8.13;;;5.37;;
11111;SDS011;5609;49.466;8.468;2023-06-22T14:56:44;8.73;;;6.10;;